createdAt,value
2022-08-05T00:01:35.532Z,16.87
2022-08-05T00:04:08.418Z,16.84
2022-08-05T00:06:37.223Z,16.82
2022-08-05T00:09:12.945Z,16.86
2022-08-05T00:11:48.293Z,16.89
2022-08-05T00:14:19.657Z,16.87
2022-08-05T00:16:52.398Z,16.81
2022-08-05T00:19:21.584Z,16.71
2022-08-05T00:21:50.748Z,16.63
2022-08-05T00:24:24.726Z,16.58
2022-08-05T00:26:53.403Z,16.56
2022-08-05T00:29:22.743Z,16.62
2022-08-05T00:32:10.576Z,16.58
2022-08-05T00:34:55.795Z,16.61
2022-08-05T00:37:50.856Z,16.62
2022-08-05T00:40:28.252Z,16.56
2022-08-05T00:42:58.491Z,16.49
2022-08-05T00:45:38.716Z,16.49
2022-08-05T00:48:12.393Z,16.44
2022-08-05T00:50:42.037Z,16.24
2022-08-05T00:54:01.162Z,16.30
2022-08-05T00:56:02.505Z,16.36
2022-08-05T00:58:30.499Z,16.29
2022-08-05T01:00:58.683Z,16.29
2022-08-05T01:03:30.847Z,16.28
2022-08-05T01:06:01.564Z,16.21
2022-08-05T01:08:42.853Z,16.10
2022-08-05T01:11:22.283Z,16.20
2022-08-05T01:14:03.105Z,16.25
2022-08-05T01:16:34.133Z,16.22
2022-08-05T01:19:16.226Z,16.18
2022-08-05T01:22:18.988Z,16.07
2022-08-05T01:25:07.699Z,15.96
2022-08-05T01:28:06.114Z,16.10
2022-08-05T01:30:39.539Z,16.06
2022-08-05T01:33:09.489Z,16.02
2022-08-05T01:35:50.607Z,16.04
2022-08-05T01:38:24.911Z,16.03
2022-08-05T01:40:59.354Z,15.91
2022-08-05T01:43:29.282Z,15.86
2022-08-05T01:45:59.995Z,15.86
2022-08-05T01:48:36.740Z,15.87
2022-08-05T01:51:12.127Z,15.83
2022-08-05T01:53:56.914Z,15.81
2022-08-05T01:58:10.631Z,16.06
2022-08-05T01:59:21.410Z,16.03
2022-08-05T02:01:51.217Z,15.95
2022-08-05T02:04:23.811Z,16.22
2022-08-05T02:06:53.790Z,16.02
2022-08-05T02:09:22.095Z,15.89
2022-08-05T02:11:57.350Z,15.80
2022-08-05T02:14:31.862Z,15.73
2022-08-05T02:17:05.341Z,15.68
2022-08-05T02:19:47.403Z,15.60
2022-08-05T02:22:26.512Z,15.56
2022-08-05T02:25:08.182Z,15.56
2022-08-05T02:27:58.224Z,15.55
2022-08-05T02:30:34.503Z,15.47
2022-08-05T02:33:03.683Z,15.83
2022-08-05T02:35:38.564Z,15.76
2022-08-05T02:38:20.051Z,15.66
2022-08-05T02:40:55.037Z,15.64
2022-08-05T02:43:23.842Z,15.54
2022-08-05T02:45:54.502Z,15.46
2022-08-05T02:48:29.096Z,15.41
2022-08-05T02:50:59.402Z,15.50
2022-08-05T02:53:27.682Z,15.55
2022-08-05T02:56:01.074Z,15.57
2022-08-05T02:58:30.798Z,15.55
2022-08-05T03:01:02.835Z,15.48
2022-08-05T03:03:33.708Z,15.49
2022-08-05T03:06:54.335Z,15.66
2022-08-05T03:09:09.540Z,15.52
2022-08-05T03:11:54.522Z,15.45
2022-08-05T03:14:26.252Z,15.47
2022-08-05T03:16:55.695Z,15.36
2022-08-05T03:19:33.776Z,15.34
2022-08-05T03:22:04.837Z,15.26
2022-08-05T03:24:44.648Z,15.30
2022-08-05T03:27:15.929Z,15.22
2022-08-05T03:29:45.200Z,15.23
2022-08-05T03:32:33.799Z,15.26
2022-08-05T03:35:04.464Z,15.39
2022-08-05T03:37:40.994Z,15.34
2022-08-05T03:40:15.384Z,15.53
2022-08-05T03:42:52.944Z,15.40
2022-08-05T03:45:23.298Z,15.26
2022-08-05T03:47:57.032Z,15.19
2022-08-05T03:50:26.857Z,15.19
2022-08-05T03:55:49.715Z,15.18
2022-08-05T03:56:10.299Z,15.05
2022-08-05T03:58:47.451Z,15.10
2022-08-05T04:01:21.139Z,15.13
2022-08-05T04:04:09.228Z,15.16
2022-08-05T04:06:47.472Z,15.31
2022-08-05T04:09:26.013Z,15.32
2022-08-05T04:11:56.459Z,15.38
2022-08-05T04:14:30.024Z,15.40
2022-08-05T04:16:59.473Z,15.43
2022-08-05T04:19:29.239Z,15.44
2022-08-05T04:22:08.359Z,15.60
2022-08-05T04:24:38.751Z,15.69
2022-08-05T04:27:13.855Z,15.93
2022-08-05T04:29:43.476Z,15.96
2022-08-05T04:32:11.747Z,15.84
2022-08-05T04:34:43.215Z,15.87
2022-08-05T04:37:11.622Z,16.06
2022-08-05T04:39:40.870Z,16.20
2022-08-05T04:42:10.028Z,16.37
2022-08-05T04:44:38.972Z,16.54
2022-08-05T04:47:18.720Z,16.68
2022-08-05T04:50:02.733Z,16.98
2022-08-05T04:52:37.691Z,17.34
2022-08-05T04:55:14.944Z,17.43
2022-08-05T04:57:47.767Z,18.15
2022-08-05T05:00:16.958Z,19.00
2022-08-05T05:02:45.014Z,20.24
2022-08-05T05:05:16.611Z,20.77
2022-08-05T05:07:56.495Z,21.53
2022-08-05T05:10:29.606Z,21.87
2022-08-05T05:12:57.979Z,22.61
2022-08-05T05:15:56.689Z,23.23
2022-08-05T05:18:15.303Z,23.62
2022-08-05T05:20:58.507Z,23.99
2022-08-05T05:23:26.683Z,24.28
2022-08-05T05:25:54.614Z,24.78
2022-08-05T05:28:24.863Z,24.75
2022-08-05T05:30:52.925Z,25.42
2022-08-05T05:33:23.387Z,25.78
2022-08-05T05:35:51.818Z,26.19
2022-08-05T05:38:27.163Z,26.31
2022-08-05T05:40:56.374Z,26.71
2022-08-05T05:43:57.193Z,26.58
2022-08-05T05:46:15.935Z,27.26
2022-08-05T05:48:46.102Z,27.82
2022-08-05T05:51:23.225Z,27.89
2022-08-05T05:53:57.624Z,27.91
2022-08-05T05:56:32.708Z,28.34
2022-08-05T05:59:05.326Z,28.49
2022-08-05T06:01:37.506Z,28.86
2022-08-05T06:04:06.967Z,28.99
2022-08-05T06:06:35.499Z,29.26
2022-08-05T06:09:05.492Z,29.59
2022-08-05T06:11:35.520Z,29.74
2022-08-05T06:14:07.433Z,30.33
2022-08-05T06:16:37.339Z,30.68
2022-08-05T06:19:07.401Z,30.71
2022-08-05T06:21:38.705Z,31.05
2022-08-05T06:24:12.706Z,30.44
2022-08-05T06:26:51.571Z,30.48
2022-08-05T06:29:25.349Z,30.50
2022-08-05T06:32:21.281Z,30.79
2022-08-05T06:34:56.826Z,30.77
2022-08-05T06:37:56.355Z,30.59
2022-08-05T06:40:18.570Z,28.79
2022-08-05T06:42:51.543Z,29.73
2022-08-05T06:45:45.034Z,30.53
2022-08-05T06:48:36.777Z,30.15
2022-08-05T06:50:58.056Z,30.35
2022-08-05T06:53:28.258Z,30.32
2022-08-05T06:55:59.313Z,29.70
2022-08-05T06:58:34.779Z,29.25
2022-08-05T07:01:05.762Z,28.93
2022-08-05T07:03:34.747Z,28.67
2022-08-05T07:06:05.757Z,29.32
2022-08-05T07:08:43.228Z,29.74
2022-08-05T07:11:22.268Z,28.97
2022-08-05T07:14:08.460Z,29.16
2022-08-05T07:17:59.113Z,29.63
2022-08-05T07:20:23.181Z,29.08
2022-08-05T07:22:30.165Z,29.25
2022-08-05T07:25:22.868Z,29.57
2022-08-05T07:27:58.206Z,30.00
2022-08-05T07:30:34.019Z,29.83
2022-08-05T07:33:05.571Z,29.99
2022-08-05T07:36:03.792Z,29.60
2022-08-05T07:38:33.186Z,29.68
2022-08-05T07:42:07.277Z,29.68
2022-08-05T07:43:52.808Z,29.32
2022-08-05T07:46:26.027Z,29.67
2022-08-05T07:49:03.820Z,29.34
2022-08-05T07:51:40.554Z,29.81
2022-08-05T07:54:10.529Z,30.14
2022-08-05T07:57:01.677Z,30.28
2022-08-05T07:59:38.109Z,30.56
2022-08-05T08:02:15.435Z,30.45
2022-08-05T08:04:44.820Z,30.64
2022-08-05T08:07:13.570Z,31.00
2022-08-05T08:09:41.536Z,30.79
2022-08-05T08:12:20.986Z,30.51
2022-08-05T08:15:02.220Z,30.62
2022-08-05T08:17:30.932Z,30.32
2022-08-05T08:20:22.694Z,30.08
2022-08-05T08:22:52.188Z,30.27
2022-08-05T08:25:26.784Z,30.34
2022-08-05T08:28:11.421Z,30.44
2022-08-05T08:30:50.084Z,30.47
2022-08-05T08:33:19.246Z,30.30
2022-08-05T08:35:53.750Z,30.25
2022-08-05T08:38:32.240Z,30.73
2022-08-05T08:41:07.253Z,30.73
2022-08-05T08:45:25.407Z,30.68
2022-08-05T08:46:28.713Z,30.84
2022-08-05T08:49:06.368Z,31.30
2022-08-05T08:52:04.127Z,32.21
2022-08-05T08:54:36.503Z,31.59
2022-08-05T08:57:11.450Z,31.78
2022-08-05T08:59:41.835Z,31.97
2022-08-05T09:02:18.988Z,32.21
2022-08-05T09:05:15.954Z,32.52
2022-08-05T09:07:40.060Z,33.07
2022-08-05T09:10:27.667Z,33.11
2022-08-05T09:12:56.842Z,32.89
2022-08-05T09:15:37.136Z,33.38
2022-08-05T09:18:09.434Z,33.92
2022-08-05T09:20:38.332Z,34.21
2022-08-05T09:23:19.242Z,34.45
2022-08-05T09:26:01.098Z,34.44
2022-08-05T09:28:32.764Z,34.42
2022-08-05T09:31:18.303Z,32.84
2022-08-05T09:33:53.843Z,33.22
2022-08-05T09:36:27.769Z,33.47
2022-08-05T09:39:03.888Z,33.22
2022-08-05T09:41:58.472Z,33.67
2022-08-05T09:44:40.131Z,32.92
2022-08-05T09:47:15.364Z,32.17
2022-08-05T09:49:55.005Z,32.07
2022-08-05T09:52:31.427Z,32.44
2022-08-05T09:55:55.654Z,33.02
2022-08-05T09:57:49.188Z,32.64
2022-08-05T10:00:25.909Z,32.32
2022-08-05T10:02:58.038Z,33.07
2022-08-05T10:05:32.665Z,33.59
2022-08-05T10:08:35.379Z,33.26
2022-08-05T10:10:54.166Z,33.23
2022-08-05T10:13:47.370Z,33.35
2022-08-05T10:16:41.553Z,34.13
2022-08-05T10:19:23.770Z,34.21
2022-08-05T10:22:01.693Z,34.37
2022-08-05T10:24:29.961Z,34.59
2022-08-05T10:27:01.464Z,35.09
2022-08-05T10:30:41.080Z,35.37
2022-08-05T10:32:54.589Z,35.06
2022-08-05T10:35:10.421Z,34.90
2022-08-05T10:37:45.209Z,34.80
2022-08-05T10:40:28.079Z,35.16
2022-08-05T10:43:02.683Z,35.22
2022-08-05T10:45:40.448Z,34.85
2022-08-05T10:48:40.673Z,35.22
2022-08-05T10:51:23.122Z,35.16
2022-08-05T10:54:00.871Z,35.54
2022-08-05T10:56:31.794Z,35.18
2022-08-05T10:59:07.278Z,35.19
2022-08-05T11:01:54.512Z,35.46
2022-08-05T11:04:26.138Z,35.20
2022-08-05T11:07:08.978Z,34.53
2022-08-05T11:09:46.488Z,34.53
2022-08-05T11:12:54.424Z,32.83
2022-08-05T11:16:00.708Z,32.56
2022-08-05T11:18:27.433Z,32.36
2022-08-05T11:20:59.035Z,32.76
2022-08-05T11:23:33.264Z,34.00
2022-08-05T11:26:09.170Z,34.91
2022-08-05T11:28:47.808Z,35.12
2022-08-05T11:31:57.877Z,35.69
2022-08-05T11:34:37.251Z,35.91
2022-08-05T11:37:06.227Z,35.60
2022-08-05T11:39:55.419Z,34.84
2022-08-05T11:42:30.356Z,34.53
2022-08-05T11:45:03.573Z,34.13
2022-08-05T11:47:48.467Z,34.53
2022-08-05T11:50:17.200Z,34.72
2022-08-05T11:52:46.248Z,34.35
2022-08-05T11:55:17.697Z,33.93
2022-08-05T11:58:09.711Z,33.77
2022-08-05T12:00:37.809Z,34.53
2022-08-05T12:03:29.215Z,34.68
2022-08-05T12:06:05.916Z,34.24
2022-08-05T12:08:49.908Z,34.68
2022-08-05T12:11:21.520Z,34.40
2022-08-05T12:14:03.895Z,33.90
2022-08-05T12:16:34.686Z,34.24
2022-08-05T12:19:08.349Z,34.42
2022-08-05T12:21:39.046Z,34.23
2022-08-05T12:24:09.381Z,33.91
2022-08-05T12:26:38.993Z,34.30
2022-08-05T12:29:16.334Z,34.51
2022-08-05T12:31:49.906Z,34.50
2022-08-05T12:34:23.581Z,34.79
2022-08-05T12:36:53.404Z,34.96
2022-08-05T12:39:21.724Z,34.86
2022-08-05T12:41:58.038Z,35.19
2022-08-05T12:44:33.634Z,35.33
2022-08-05T12:47:03.591Z,35.29
2022-08-05T12:50:04.139Z,35.38
2022-08-05T12:52:35.378Z,34.87
2022-08-05T12:55:22.689Z,34.65
2022-08-05T12:58:50.286Z,34.19
2022-08-05T13:02:00.940Z,33.92
2022-08-05T13:03:33.273Z,33.46
2022-08-05T13:06:01.535Z,33.49
2022-08-05T13:08:32.136Z,33.98
2022-08-05T13:11:01.954Z,34.56
2022-08-05T13:14:06.378Z,34.65
2022-08-05T13:16:20.837Z,34.81
2022-08-05T13:18:57.932Z,34.52
2022-08-05T13:21:28.349Z,34.90
2022-08-05T13:24:08.796Z,34.61
2022-08-05T13:26:37.055Z,34.72
2022-08-05T13:29:05.416Z,34.78
2022-08-05T13:32:04.350Z,34.19
2022-08-05T13:34:26.069Z,34.26
2022-08-05T13:36:54.692Z,34.40
2022-08-05T13:39:24.418Z,34.70
2022-08-05T13:42:14.630Z,34.73
2022-08-05T13:44:45.828Z,34.61
2022-08-05T13:47:35.129Z,34.27
2022-08-05T13:50:06.627Z,34.30
2022-08-05T13:52:37.650Z,34.35
2022-08-05T13:55:08.030Z,34.50
2022-08-05T13:57:50.775Z,34.62
2022-08-05T14:00:26.921Z,34.47
2022-08-05T14:02:57.177Z,34.33
2022-08-05T14:05:29.516Z,34.33
2022-08-05T14:08:21.056Z,33.98
2022-08-05T14:10:59.812Z,33.81
2022-08-05T14:13:44.139Z,33.67
2022-08-05T14:16:16.999Z,33.86
2022-08-05T14:18:46.607Z,33.84
2022-08-05T14:22:07.517Z,33.96
2022-08-05T14:24:02.532Z,34.07
2022-08-05T14:26:38.313Z,34.08
2022-08-05T14:29:16.025Z,34.21
2022-08-05T14:32:03.209Z,34.12
2022-08-05T14:34:35.076Z,34.25
2022-08-05T14:37:04.235Z,34.47
2022-08-05T14:39:50.259Z,34.29
2022-08-05T14:42:22.279Z,34.30
2022-08-05T14:44:50.307Z,33.95
2022-08-05T14:48:02.437Z,33.98
2022-08-05T14:50:17.466Z,33.65
2022-08-05T14:52:57.663Z,33.77
2022-08-05T14:55:38.638Z,33.42
2022-08-05T14:58:10.912Z,33.67
2022-08-05T15:00:59.093Z,33.54
2022-08-05T15:03:33.623Z,33.42
2022-08-05T15:06:14.833Z,33.48
2022-08-05T15:08:58.755Z,33.56
2022-08-05T15:11:52.043Z,33.40
2022-08-05T15:14:35.726Z,33.26
2022-08-05T15:17:45.657Z,32.89
2022-08-05T15:19:58.060Z,32.78
2022-08-05T15:22:28.342Z,32.43
2022-08-05T15:24:56.867Z,32.57
2022-08-05T15:27:25.673Z,32.73
2022-08-05T15:29:56.526Z,32.53
2022-08-05T15:32:27.506Z,32.70
2022-08-05T15:34:57.199Z,32.79
2022-08-05T15:38:32.740Z,32.75
2022-08-05T15:41:04.617Z,32.73
2022-08-05T15:43:10.846Z,32.50
2022-08-05T15:45:45.534Z,32.34
2022-08-05T15:48:15.041Z,32.15
2022-08-05T15:50:43.772Z,32.19
2022-08-05T15:53:13.649Z,32.36
2022-08-05T15:56:03.545Z,32.38
2022-08-05T15:58:35.519Z,32.53
2022-08-05T16:01:17.215Z,32.54
2022-08-05T16:03:48.344Z,32.49
2022-08-05T16:06:19.988Z,32.57
2022-08-05T16:08:50.963Z,32.58
2022-08-05T16:11:40.006Z,32.56
2022-08-05T16:14:08.965Z,32.48
2022-08-05T16:16:37.186Z,32.58
2022-08-05T16:19:05.213Z,32.61
2022-08-05T16:22:00.161Z,32.53
2022-08-05T16:24:41.655Z,32.59
2022-08-05T16:27:15.972Z,32.49
2022-08-05T16:29:50.394Z,32.31
2022-08-05T16:32:28.646Z,31.91
2022-08-05T16:34:58.784Z,31.85
2022-08-05T16:38:15.362Z,31.98
2022-08-05T16:40:29.229Z,31.94
2022-08-05T16:42:59.183Z,31.66
2022-08-05T16:46:06.026Z,31.59
2022-08-05T16:48:25.568Z,31.42
2022-08-05T16:51:01.848Z,31.44
2022-08-05T16:53:32.485Z,31.36
2022-08-05T16:56:18.281Z,31.05
2022-08-05T16:58:49.157Z,31.09
2022-08-05T17:01:18.688Z,31.12
2022-08-05T17:03:47.084Z,31.00
2022-08-05T17:06:16.780Z,31.09
2022-08-05T17:08:53.374Z,30.93
2022-08-05T17:11:23.961Z,30.79
2022-08-05T17:14:05.347Z,30.73
2022-08-05T17:16:36.742Z,30.57
2022-08-05T17:19:07.709Z,30.63
2022-08-05T17:21:39.826Z,30.55
2022-08-05T17:24:30.180Z,30.35
2022-08-05T17:26:57.562Z,30.31
2022-08-05T17:29:39.829Z,30.21
2022-08-05T17:32:11.880Z,30.04
2022-08-05T17:34:47.475Z,29.85
2022-08-05T17:37:29.483Z,29.65
2022-08-05T17:40:10.696Z,29.63
2022-08-05T17:42:42.952Z,29.54
2022-08-05T17:45:21.855Z,29.36
2022-08-05T17:47:54.661Z,29.17
2022-08-05T17:50:28.406Z,29.01
2022-08-05T17:52:59.057Z,28.96
2022-08-05T17:55:38.163Z,28.83
2022-08-05T17:58:11.043Z,28.64
2022-08-05T18:00:45.172Z,28.62
2022-08-05T18:03:39.322Z,28.53
2022-08-05T18:06:10.858Z,28.24
2022-08-05T18:08:44.234Z,28.15
2022-08-05T18:11:24.113Z,28.35
2022-08-05T18:14:01.024Z,28.31
2022-08-05T18:16:33.465Z,28.49
2022-08-05T18:19:01.712Z,28.27
2022-08-05T18:22:08.963Z,28.46
2022-08-05T18:24:17.748Z,28.28
2022-08-05T18:26:45.674Z,28.24
2022-08-05T18:29:16.891Z,28.28
2022-08-05T18:31:46.364Z,28.27
2022-08-05T18:34:17.713Z,28.07
2022-08-05T18:36:49.897Z,28.05
2022-08-05T18:39:42.399Z,27.84
2022-08-05T18:42:19.012Z,27.64
2022-08-05T18:44:49.368Z,27.60
2022-08-05T18:47:26.899Z,27.67
2022-08-05T18:50:13.466Z,27.43
2022-08-05T18:52:51.410Z,27.11
2022-08-05T18:55:20.445Z,27.04
2022-08-05T18:57:52.844Z,27.09
2022-08-05T19:00:27.021Z,27.28
2022-08-05T19:03:04.080Z,27.39
2022-08-05T19:06:11.398Z,27.53
2022-08-05T19:08:22.480Z,27.69
2022-08-05T19:11:04.629Z,27.56
2022-08-05T19:13:36.172Z,27.51
2022-08-05T19:16:22.202Z,27.54
2022-08-05T19:18:56.783Z,27.46
2022-08-05T19:21:27.536Z,27.40
2022-08-05T19:24:05.087Z,27.14
2022-08-05T19:26:54.290Z,27.10
2022-08-05T19:29:23.833Z,27.03
2022-08-05T19:31:55.389Z,26.91
2022-08-05T19:34:26.908Z,26.90
2022-08-05T19:36:54.874Z,26.80
2022-08-05T19:39:23.316Z,26.57
2022-08-05T19:42:06.134Z,26.35
2022-08-05T19:44:45.199Z,26.01
2022-08-05T19:47:16.111Z,25.77
2022-08-05T19:49:48.012Z,25.44
2022-08-05T19:52:30.907Z,25.35
2022-08-05T19:55:06.933Z,25.23
2022-08-05T19:58:06.805Z,25.30
2022-08-05T20:00:37.765Z,25.49
2022-08-05T20:03:09.059Z,25.49
2022-08-05T20:05:50.123Z,25.80
2022-08-05T20:08:18.872Z,25.48
2022-08-05T20:10:49.733Z,25.34
2022-08-05T20:13:29.837Z,25.48
2022-08-05T20:16:06.856Z,25.24
2022-08-05T20:18:36.310Z,25.35
2022-08-05T20:21:06.975Z,25.49
2022-08-05T20:23:40.177Z,25.67
2022-08-05T20:26:19.795Z,25.75
2022-08-05T20:28:50.363Z,25.68
2022-08-05T20:31:21.886Z,25.44
2022-08-05T20:33:51.234Z,25.57
2022-08-05T20:36:21.524Z,25.54
2022-08-05T20:38:54.546Z,25.62
2022-08-05T20:41:44.147Z,25.46
2022-08-05T20:44:18.945Z,25.37
2022-08-05T20:46:57.021Z,25.26
2022-08-05T20:49:26.138Z,25.24
2022-08-05T20:51:57.378Z,25.01
2022-08-05T20:54:43.479Z,25.14
2022-08-05T20:57:21.421Z,25.12
2022-08-05T21:00:21.295Z,25.30
2022-08-05T21:02:51.439Z,25.22
2022-08-05T21:05:20.111Z,25.13
2022-08-05T21:07:52.123Z,24.96
2022-08-05T21:10:21.564Z,25.03
2022-08-05T21:13:08.207Z,25.13
2022-08-05T21:15:38.218Z,24.97
2022-08-05T21:18:06.301Z,24.83
2022-08-05T21:20:35.192Z,24.69
2022-08-05T21:23:05.285Z,24.68
2022-08-05T21:25:34.424Z,24.66
2022-08-05T21:28:02.822Z,24.85
2022-08-05T21:30:31.423Z,24.92
2022-08-05T21:32:59.836Z,24.86
2022-08-05T21:35:55.684Z,25.00
2022-08-05T21:38:20.108Z,24.81
2022-08-05T21:40:48.152Z,24.74
2022-08-05T21:43:24.836Z,24.77
2022-08-05T21:45:56.773Z,24.83
2022-08-05T21:48:28.854Z,24.67
2022-08-05T21:50:57.351Z,24.62
2022-08-05T21:53:27.138Z,24.42
2022-08-05T21:56:04.410Z,24.37
2022-08-05T21:58:34.666Z,24.23
2022-08-05T22:01:05.586Z,24.12
2022-08-05T22:03:52.102Z,24.06
2022-08-05T22:06:35.443Z,24.21
2022-08-05T22:09:15.145Z,24.09
2022-08-05T22:11:48.873Z,23.89
2022-08-05T22:14:33.277Z,23.84
2022-08-05T22:17:06.911Z,23.80
2022-08-05T22:20:03.255Z,23.72
2022-08-05T22:22:27.186Z,23.72
2022-08-05T22:25:21.874Z,23.61
2022-08-05T22:28:08.470Z,23.42
2022-08-05T22:30:55.578Z,23.30
2022-08-05T22:33:57.026Z,23.33
2022-08-05T22:36:14.280Z,23.34
2022-08-05T22:38:42.976Z,23.23
2022-08-05T22:41:12.645Z,23.22
2022-08-05T22:43:43.203Z,23.26
2022-08-05T22:46:13.714Z,23.19
2022-08-05T22:48:51.726Z,23.23
2022-08-05T22:51:23.340Z,23.14
2022-08-05T22:54:07.742Z,23.11
2022-08-05T22:56:39.987Z,22.94
2022-08-05T22:59:45.459Z,22.91
2022-08-05T23:02:05.610Z,22.99
2022-08-05T23:04:36.009Z,22.99
2022-08-05T23:07:04.149Z,23.21
2022-08-05T23:09:58.200Z,23.33
2022-08-05T23:12:24.576Z,23.49
2022-08-05T23:14:52.762Z,23.67
2022-08-05T23:17:34.851Z,23.45
2022-08-05T23:20:10.448Z,23.57
2022-08-05T23:22:47.815Z,23.37
2022-08-05T23:25:51.634Z,23.17
2022-08-05T23:28:07.734Z,23.31
2022-08-05T23:30:39.962Z,23.34
2022-08-05T23:33:22.118Z,23.68
2022-08-05T23:35:56.256Z,23.67
2022-08-05T23:38:26.069Z,23.77
2022-08-05T23:40:54.935Z,23.79
2022-08-05T23:43:37.334Z,23.84
2022-08-05T23:46:20.004Z,23.82
2022-08-05T23:49:01.228Z,23.91
2022-08-05T23:51:53.985Z,23.91
2022-08-05T23:54:25.587Z,23.33
2022-08-05T23:56:55.818Z,23.18
